Time;durP1;ratioP1;P1;durP2;ratioP2;P2;SDS_P1;SDS_P2;PMS_P1;PMS_P2;Temp;Humidity;BMP_temperature;BMP_pressure;BME280_temperature;BME280_humidity;BME280_pressure;Samples;Min_cycle;Max_cycle;Signal;HPM_P1;HPM_P2
2022/06/01 00:00:52;;;;;;;0.00;0.00;;;12.40;99.90;;;;;;4942794;28;20444;-70
2022/06/01 00:03:19;;;;;;;0.00;0.00;;;12.40;99.90;;;;;;4942134;28;20472;-70
2022/06/01 00:05:47;;;;;;;0.00;0.00;;;12.30;99.90;;;;;;4941208;28;20527;-71
2022/06/01 00:08:15;;;;;;;0.00;0.00;;;12.30;99.90;;;;;;4941493;29;20462;-70
2022/06/01 00:10:43;;;;;;;0.00;0.00;;;12.20;99.90;;;;;;4945152;28;20453;-70
2022/06/01 00:13:12;;;;;;;0.00;0.00;;;12.20;99.90;;;;;;4953166;29;20523;-70
2022/06/01 00:15:40;;;;;;;0.00;0.00;;;12.10;99.90;;;;;;4943059;29;20444;-69
2022/06/01 00:18:09;;;;;;;0.00;0.00;;;12.10;99.90;;;;;;4941074;28;20455;-71
2022/06/01 00:20:38;;;;;;;0.00;0.00;;;12.10;99.90;;;;;;4940935;29;20455;-70
2022/06/01 00:23:06;;;;;;;0.00;0.00;;;12.10;99.90;;;;;;4940910;28;20486;-70
2022/06/01 00:25:34;;;;;;;0.00;0.00;;;12.20;99.90;;;;;;4940583;29;21121;-71
2022/06/01 00:28:03;;;;;;;0.00;0.00;;;12.30;99.90;;;;;;4940914;29;20441;-70
2022/06/01 00:30:32;;;;;;;0.00;0.00;;;12.30;99.90;;;;;;4940798;28;20452;-69
2022/06/01 00:33:00;;;;;;;0.00;0.00;;;12.40;99.90;;;;;;4941779;29;20535;-70
2022/06/01 00:35:29;;;;;;;0.00;0.00;;;12.40;99.90;;;;;;4940640;28;20457;-71
2022/06/01 00:37:57;;;;;;;0.00;0.00;;;12.40;99.90;;;;;;4940539;29;20949;-70
2022/06/01 00:40:27;;;;;;;0.00;0.00;;;12.40;99.90;;;;;;4940707;28;20440;-70
2022/06/01 00:42:58;;;;;;;0.00;0.00;;;12.50;99.90;;;;;;4939988;28;21098;-70
2022/06/01 00:45:29;;;;;;;0.00;0.00;;;12.40;99.90;;;;;;4941136;29;20528;-71
2022/06/01 00:47:57;;;;;;;0.00;0.00;;;12.40;99.90;;;;;;4940452;28;20444;-74
2022/06/01 00:50:28;;;;;;;0.00;0.00;;;12.40;99.90;;;;;;4940271;28;20467;-72
2022/06/01 00:53:01;;;;;;;0.00;0.00;;;12.40;99.90;;;;;;4940421;28;20638;-71
2022/06/01 00:55:32;;;;;;;0.00;0.00;;;12.30;99.90;;;;;;4940453;29;20462;-72
2022/06/01 00:58:05;;;;;;;0.00;0.00;;;12.20;99.90;;;;;;4940347;29;20975;-77
2022/06/01 01:00:35;;;;;;;0.00;0.00;;;12.20;99.90;;;;;;4940668;29;20439;-69
2022/06/01 01:03:06;;;;;;;0.00;0.00;;;12.10;99.90;;;;;;4940626;29;20515;-73
2022/06/01 01:05:35;;;;;;;0.00;0.00;;;12.00;99.90;;;;;;4940550;29;20542;-74
2022/06/01 01:08:06;;;;;;;0.00;0.00;;;11.90;99.90;;;;;;4940409;28;20475;-68
2022/06/01 01:10:34;;;;;;;0.00;0.00;;;11.70;99.90;;;;;;4926015;28;20481;-68
2022/06/01 01:13:05;;;;;;;0.00;0.00;;;11.70;99.90;;;;;;4920099;29;20442;-73
2022/06/01 01:15:38;;;;;;;0.00;0.00;;;11.60;99.90;;;;;;4920038;29;20969;-73
2022/06/01 01:18:10;;;;;;;0.00;0.00;;;11.50;99.90;;;;;;4920631;29;21112;-72
2022/06/01 01:20:47;;;;;;;0.00;0.00;;;11.40;99.90;;;;;;4921950;29;20441;-73
2022/06/01 01:23:24;;;;;;;0.00;0.00;;;11.40;99.90;;;;;;4924288;29;20564;-74
2022/06/01 01:25:53;;;;;;;0.00;0.00;;;11.30;99.90;;;;;;4924154;29;20442;-73
2022/06/01 01:28:21;;;;;;;0.00;0.00;;;11.20;99.90;;;;;;4924167;29;20453;-73
2022/06/01 01:30:57;;;;;;;0.00;0.00;;;11.10;99.90;;;;;;4923892;29;20446;-72
2022/06/01 01:33:28;;;;;;;0.00;0.00;;;11.10;99.90;;;;;;4924471;29;20430;-72
2022/06/01 01:36:01;;;;;;;0.00;0.00;;;11.00;99.90;;;;;;4921879;29;20465;-72
2022/06/01 01:38:43;;;;;;;0.00;0.00;;;11.00;99.90;;;;;;4921026;29;21180;-73
2022/06/01 01:41:16;;;;;;;0.00;0.00;;;10.90;99.90;;;;;;4920499;29;20710;-73
2022/06/01 01:43:59;;;;;;;0.00;0.00;;;10.90;99.90;;;;;;4920556;29;20483;-74
2022/06/01 01:46:28;;;;;;;0.00;0.00;;;10.80;99.90;;;;;;4921617;29;20454;-73
2022/06/01 01:48:57;;;;;;;0.00;0.00;;;10.80;99.90;;;;;;4920907;29;20205;-73
2022/06/01 01:51:28;;;;;;;0.00;0.00;;;10.70;99.90;;;;;;4921508;29;20477;-73
2022/06/01 01:53:56;;;;;;;0.00;0.00;;;10.70;99.90;;;;;;4921484;29;20520;-71
2022/06/01 01:56:39;;;;;;;0.00;0.00;;;10.70;99.90;;;;;;4924470;29;20617;-73
2022/06/01 01:59:21;;;;;;;0.00;0.00;;;10.70;99.90;;;;;;4924673;29;20449;-73
2022/06/01 02:01:56;;;;;;;0.00;0.00;;;10.60;99.90;;;;;;4924441;29;20456;-72
2022/06/01 02:07:23;;;;;;;0.00;0.00;;;10.60;99.90;;;;;;4924197;29;20530;-72
2022/06/01 02:12:42;;;;;;;0.00;0.00;;;10.50;99.90;;;;;;4924100;29;20228;-73
2022/06/01 02:15:14;;;;;;;0.00;0.00;;;10.60;99.90;;;;;;4924768;29;20193;-72
2022/06/01 02:17:49;;;;;;;0.00;0.00;;;10.60;99.90;;;;;;4924610;29;20236;-72
2022/06/01 02:20:30;;;;;;;0.00;0.00;;;10.60;99.90;;;;;;4924311;29;21016;-72
2022/06/01 02:22:59;;;;;;;0.00;0.00;;;10.50;99.90;;;;;;4927121;29;20230;-72
2022/06/01 02:25:27;;;;;;;0.00;0.00;;;10.50;99.90;;;;;;4926041;29;20221;-72
2022/06/01 02:27:59;;;;;;;0.00;0.00;;;10.50;99.90;;;;;;4933692;29;20473;-71
2022/06/01 02:30:33;;;;;;;0.00;0.00;;;10.50;99.90;;;;;;4945199;29;20201;-73
2022/06/01 02:33:02;;;;;;;0.00;0.00;;;10.60;99.90;;;;;;4924712;29;20201;-73
2022/06/01 02:35:36;;;;;;;0.00;0.00;;;10.60;99.90;;;;;;4923750;29;20823;-73
2022/06/01 02:38:08;;;;;;;0.00;0.00;;;10.70;99.90;;;;;;4924193;29;20210;-72
2022/06/01 02:40:36;;;;;;;0.00;0.00;;;10.80;99.90;;;;;;4923696;29;20879;-72
2022/06/01 02:43:05;;;;;;;0.00;0.00;;;10.90;99.90;;;;;;4927485;29;21154;-72
2022/06/01 02:45:33;;;;;;;0.00;0.00;;;10.90;99.90;;;;;;4927859;29;20225;-72
2022/06/01 02:48:03;;;;;;;0.00;0.00;;;11.00;99.90;;;;;;4925216;29;20453;-71
2022/06/01 02:50:33;;;;;;;0.00;0.00;;;11.10;99.90;;;;;;4923247;29;20462;-71
2022/06/01 02:53:02;;;;;;;0.00;0.00;;;11.10;99.90;;;;;;4923994;29;20553;-71
2022/06/01 02:55:31;;;;;;;0.00;0.00;;;11.10;99.90;;;;;;4923295;29;20448;-71
2022/06/01 02:58:00;;;;;;;0.00;0.00;;;11.10;99.90;;;;;;4923428;29;20215;-71
2022/06/01 03:00:33;;;;;;;0.00;0.00;;;11.10;99.90;;;;;;4923570;29;20469;-71
2022/06/01 03:03:04;;;;;;;0.00;0.00;;;11.00;99.90;;;;;;4923601;29;20434;-71
2022/06/01 03:05:34;;;;;;;0.00;0.00;;;11.00;99.90;;;;;;4924999;29;20485;-71
2022/06/01 03:08:02;;;;;;;0.00;0.00;;;11.00;99.90;;;;;;4923348;29;20205;-71
2022/06/01 03:10:31;;;;;;;0.00;0.00;;;11.00;99.90;;;;;;4922964;29;20221;-71
2022/06/01 03:12:59;;;;;;;0.00;0.00;;;10.90;99.90;;;;;;4923180;29;20214;-71
2022/06/01 03:15:29;;;;;;;0.00;0.00;;;10.90;99.90;;;;;;4922884;29;20681;-71
2022/06/01 03:17:57;;;;;;;0.00;0.00;;;10.90;99.90;;;;;;4922982;29;20445;-72
2022/06/01 03:20:27;;;;;;;0.00;0.00;;;10.80;99.90;;;;;;4922985;29;20680;-70
2022/06/01 03:22:57;;;;;;;0.00;0.00;;;10.90;99.90;;;;;;4922926;29;20466;-72
2022/06/01 03:25:26;;;;;;;0.00;0.00;;;10.90;99.90;;;;;;4922271;29;20757;-70
2022/06/01 03:27:57;;;;;;;0.00;0.00;;;10.80;99.90;;;;;;4922459;29;20948;-71
2022/06/01 03:30:26;;;;;;;0.00;0.00;;;10.80;99.90;;;;;;4922944;29;20516;-69
2022/06/01 03:32:56;;;;;;;0.00;0.00;;;10.80;99.90;;;;;;4922663;29;21136;-71
2022/06/01 03:35:27;;;;;;;0.00;0.00;;;10.70;99.90;;;;;;4922661;29;20453;-70
2022/06/01 03:37:57;;;;;;;0.00;0.00;;;10.70;99.90;;;;;;4922745;29;20208;-70
2022/06/01 03:40:27;;;;;;;0.00;0.00;;;10.70;99.90;;;;;;4921953;29;20204;-70
2022/06/01 03:42:55;;;;;;;0.00;0.00;;;10.60;99.90;;;;;;4922111;29;20222;-70
2022/06/01 03:48:10;;;;;;;0.00;0.00;;;10.60;99.90;;;;;;4922337;29;20338;-70
2022/06/01 03:50:39;;;;;;;0.00;0.00;;;10.60;99.90;;;;;;4921694;29;20596;-69
2022/06/01 03:53:07;;;;;;;0.00;0.00;;;10.60;99.90;;;;;;4922968;29;20220;-69
2022/06/01 03:55:36;;;;;;;0.00;0.00;;;10.50;99.90;;;;;;4922025;29;20210;-69
2022/06/01 03:58:04;;;;;;;0.00;0.00;;;10.60;99.90;;;;;;4922373;29;20201;-68
2022/06/01 04:00:32;;;;;;;0.00;0.00;;;10.60;99.90;;;;;;4922880;29;20240;-68
2022/06/01 04:03:00;;;;;;;0.00;0.00;;;10.70;99.90;;;;;;4922129;29;20731;-69
2022/06/01 04:05:30;;;;;;;0.00;0.00;;;10.80;99.90;;;;;;4921455;29;20484;-69
2022/06/01 04:07:58;;;;;;;0.00;0.00;;;10.90;99.90;;;;;;4921754;29;20212;-69
2022/06/01 04:10:26;;;;;;;0.00;0.00;;;10.90;99.90;;;;;;4922254;29;20460;-69
2022/06/01 04:12:59;;;;;;;0.00;0.00;;;11.10;99.90;;;;;;4922174;29;20543;-69
2022/06/01 04:15:27;;;;;;;0.00;0.00;;;11.30;99.90;;;;;;4922120;29;20450;-74
2022/06/01 04:17:55;;;;;;;0.00;0.00;;;11.40;99.90;;;;;;4921814;29;20445;-72
2022/06/01 04:20:23;;;;;;;0.00;0.00;;;11.40;99.90;;;;;;4925642;29;20469;-72
2022/06/01 04:22:54;;;;;;;0.00;0.00;;;11.50;99.90;;;;;;4932399;29;21159;-71
2022/06/01 04:25:23;;;;;;;0.00;0.00;;;11.70;99.90;;;;;;4923460;29;20527;-72
2022/06/01 04:27:51;;;;;;;0.00;0.00;;;11.80;99.90;;;;;;4938429;29;20447;-68
2022/06/01 04:30:21;;;;;;;0.00;0.00;;;11.90;99.90;;;;;;4934439;28;20456;-68
2022/06/01 04:32:51;;;;;;;0.00;0.00;;;12.00;99.90;;;;;;4926494;29;20482;-69
2022/06/01 04:35:20;;;;;;;0.00;0.00;;;12.10;99.90;;;;;;4936127;29;20449;-68
2022/06/01 04:37:48;;;;;;;0.00;0.00;;;12.20;99.90;;;;;;4929303;29;20465;-69
2022/06/01 04:40:19;;;;;;;0.00;0.00;;;12.40;99.90;;;;;;4939682;28;20452;-68
2022/06/01 04:42:46;;;;;;;0.00;0.00;;;12.50;99.90;;;;;;4939085;29;20480;-68
2022/06/01 04:45:17;;;;;;;0.00;0.00;;;12.60;99.90;;;;;;4941006;28;21023;-68
2022/06/01 04:47:45;;;;;;;0.00;0.00;;;12.70;99.90;;;;;;4933832;29;20448;-68
2022/06/01 04:50:13;;;;;;;0.00;0.00;;;12.70;99.90;;;;;;4923658;29;20452;-68
2022/06/01 04:52:41;;;;;;;0.00;0.00;;;12.80;99.90;;;;;;4928101;28;20576;-68
2022/06/01 04:55:09;;;;;;;0.00;0.00;;;12.90;99.90;;;;;;4922602;29;20452;-68
2022/06/01 04:57:39;;;;;;;0.00;0.00;;;13.00;99.90;;;;;;4920721;29;20451;-68
2022/06/01 05:00:09;;;;;;;0.00;0.00;;;13.10;99.90;;;;;;4929795;29;20475;-68
2022/06/01 05:02:37;;;;;;;0.00;0.00;;;13.10;99.90;;;;;;4934066;28;20469;-68
2022/06/01 05:05:06;;;;;;;0.00;0.00;;;13.20;99.90;;;;;;4931918;28;20454;-67
2022/06/01 05:07:34;;;;;;;0.00;0.00;;;13.30;99.90;;;;;;4932017;28;20453;-67
2022/06/01 05:10:02;;;;;;;0.00;0.00;;;13.40;99.90;;;;;;4930258;29;20548;-66
2022/06/01 05:12:30;;;;;;;0.00;0.00;;;13.40;99.90;;;;;;4930946;28;20533;-66
2022/06/01 05:14:59;;;;;;;0.00;0.00;;;13.50;99.90;;;;;;4931519;28;20457;-66
2022/06/01 05:17:27;;;;;;;0.00;0.00;;;13.50;99.90;;;;;;4931922;28;20460;-66
2022/06/01 05:19:54;;;;;;;0.00;0.00;;;13.70;99.90;;;;;;4930969;29;20464;-66
2022/06/01 05:22:22;;;;;;;0.00;0.00;;;13.70;99.90;;;;;;4932243;29;20470;-66
2022/06/01 05:24:50;;;;;;;0.00;0.00;;;13.70;99.90;;;;;;4929333;28;20548;-65
2022/06/01 05:27:18;;;;;;;0.00;0.00;;;13.70;99.90;;;;;;4934347;29;20492;-65
2022/06/01 05:29:46;;;;;;;0.00;0.00;;;13.70;99.90;;;;;;4926883;28;20453;-65
2022/06/01 05:32:15;;;;;;;0.00;0.00;;;13.70;99.90;;;;;;4943345;29;20633;-65
2022/06/01 05:34:43;;;;;;;0.00;0.00;;;13.70;99.90;;;;;;4941015;28;21033;-64
2022/06/01 05:37:11;;;;;;;0.00;0.00;;;13.60;99.90;;;;;;4943235;29;20444;-65
2022/06/01 05:39:39;;;;;;;0.00;0.00;;;13.60;99.90;;;;;;4930935;29;20449;-65
2022/06/01 05:42:08;;;;;;;0.00;0.00;;;13.50;99.90;;;;;;4937229;29;21087;-65
2022/06/01 05:44:36;;;;;;;0.00;0.00;;;13.50;99.90;;;;;;4943659;28;20453;-67
2022/06/01 05:47:04;;;;;;;0.00;0.00;;;13.50;99.90;;;;;;4925306;29;20922;-66
2022/06/01 05:49:33;;;;;;;0.00;0.00;;;13.50;99.90;;;;;;4923638;29;20456;-66
2022/06/01 05:52:01;;;;;;;0.00;0.00;;;13.50;99.90;;;;;;4924444;29;20568;-65
2022/06/01 05:54:29;;;;;;;0.00;0.00;;;13.50;99.90;;;;;;4924143;29;20468;-67
2022/06/01 05:56:57;;;;;;;0.00;0.00;;;13.40;99.90;;;;;;4923908;29;20437;-68
2022/06/01 05:59:31;;;;;;;0.00;0.00;;;13.40;99.90;;;;;;4934224;29;20503;-66
2022/06/01 06:01:59;;;;;;;0.00;0.00;;;13.30;99.90;;;;;;4932831;29;21037;-66
2022/06/01 06:04:27;;;;;;;0.00;0.00;;;13.30;99.90;;;;;;4934619;29;20922;-66
2022/06/01 06:06:56;;;;;;;0.00;0.00;;;13.30;99.90;;;;;;4938549;28;20487;-66
2022/06/01 06:09:26;;;;;;;0.00;0.00;;;13.30;99.90;;;;;;4934311;28;20483;-66
2022/06/01 06:11:54;;;;;;;0.00;0.00;;;13.30;99.90;;;;;;4936316;28;20571;-66
2022/06/01 06:14:22;;;;;;;0.00;0.00;;;13.30;99.90;;;;;;4935472;29;21015;-66
2022/06/01 06:16:50;;;;;;;0.00;0.00;;;13.30;99.90;;;;;;4932279;28;21088;-66
2022/06/01 06:19:20;;;;;;;0.00;0.00;;;13.30;99.90;;;;;;4934562;29;20444;-66
2022/06/01 06:21:49;;;;;;;0.00;0.00;;;13.10;99.90;;;;;;4934350;28;20492;-66
2022/06/01 06:24:21;;;;;;;0.00;0.00;;;13.00;99.90;;;;;;4936944;29;20447;-66
2022/06/01 06:26:49;;;;;;;0.00;0.00;;;12.80;99.90;;;;;;4932300;29;20491;-66
2022/06/01 06:29:19;;;;;;;0.00;0.00;;;12.80;99.90;;;;;;4934096;28;20452;-66
2022/06/01 06:31:47;;;;;;;0.00;0.00;;;12.70;99.90;;;;;;4932637;29;20973;-65
2022/06/01 06:34:16;;;;;;;0.00;0.00;;;12.70;99.90;;;;;;4932588;28;21081;-66
2022/06/01 06:36:44;;;;;;;0.00;0.00;;;12.70;99.90;;;;;;4937207;28;20515;-66
2022/06/01 06:39:13;;;;;;;0.00;0.00;;;12.60;99.90;;;;;;4939345;28;20445;-66
2022/06/01 06:41:43;;;;;;;0.00;0.00;;;12.60;99.90;;;;;;4934657;29;20548;-66
2022/06/01 06:44:11;;;;;;;0.00;0.00;;;12.60;99.90;;;;;;4935612;29;20445;-66
2022/06/01 06:46:39;;;;;;;0.00;0.00;;;12.60;99.90;;;;;;4934490;29;20483;-66
2022/06/01 06:49:07;;;;;;;0.00;0.00;;;12.50;99.90;;;;;;4934928;29;20482;-66
2022/06/01 06:51:37;;;;;;;0.00;0.00;;;12.50;99.90;;;;;;4934116;28;20858;-67
2022/06/01 06:54:05;;;;;;;0.00;0.00;;;12.50;99.90;;;;;;4932535;29;20443;-66
2022/06/01 06:56:33;;;;;;;0.00;0.00;;;12.50;99.90;;;;;;4933938;28;20443;-66
2022/06/01 06:59:03;;;;;;;0.00;0.00;;;12.50;99.90;;;;;;4933068;28;20461;-66
2022/06/01 07:01:31;;;;;;;0.00;0.00;;;12.50;99.90;;;;;;4932760;29;21026;-66
2022/06/01 07:04:00;;;;;;;0.00;0.00;;;12.40;99.90;;;;;;4941637;29;20519;-66
2022/06/01 07:06:28;;;;;;;0.00;0.00;;;12.40;99.90;;;;;;4941652;28;20551;-66
2022/06/01 07:08:56;;;;;;;0.00;0.00;;;12.30;99.90;;;;;;4942951;28;20440;-65
2022/06/01 07:11:27;;;;;;;0.00;0.00;;;12.30;99.90;;;;;;4941807;29;20535;-71
2022/06/01 07:13:56;;;;;;;0.00;0.00;;;12.20;99.90;;;;;;4930824;29;20499;-66
2022/06/01 07:16:27;;;;;;;0.00;0.00;;;12.20;99.90;;;;;;4942717;29;20444;-66
2022/06/01 07:18:58;;;;;;;0.00;0.00;;;12.20;99.90;;;;;;4935128;29;20448;-66
2022/06/01 07:21:26;;;;;;;0.00;0.00;;;12.20;99.90;;;;;;4923449;29;20584;-66
2022/06/01 07:23:59;;;;;;;0.00;0.00;;;12.20;99.90;;;;;;4933076;28;20505;-71
2022/06/01 07:26:31;;;;;;;0.00;0.00;;;12.30;99.90;;;;;;4934160;28;20484;-67
2022/06/01 07:28:59;;;;;;;0.00;0.00;;;12.40;99.90;;;;;;4934512;29;21165;-66
2022/06/01 07:31:28;;;;;;;0.00;0.00;;;12.50;99.90;;;;;;4932518;28;20696;-66
2022/06/01 07:33:58;;;;;;;0.00;0.00;;;12.50;99.90;;;;;;4932702;29;20457;-65
2022/06/01 07:36:27;;;;;;;0.00;0.00;;;12.60;99.90;;;;;;4936560;28;20472;-65
2022/06/01 07:44:30;;;;;;;0.00;0.00;;;12.80;99.90;;;;;;4930579;29;20476;-69
2022/06/01 07:47:00;;;;;;;0.00;0.00;;;12.90;99.90;;;;;;4930290;28;20496;-69
2022/06/01 07:49:48;;;;;;;0.00;0.00;;;13.00;99.90;;;;;;4935552;29;20432;-66
2022/06/01 07:52:36;;;;;;;0.00;0.00;;;13.20;99.90;;;;;;4939406;28;20473;-66
2022/06/01 07:55:05;;;;;;;0.00;0.00;;;13.30;99.90;;;;;;4934038;29;20472;-66
2022/06/01 07:57:33;;;;;;;0.00;0.00;;;13.40;99.90;;;;;;4931150;29;20890;-66
2022/06/01 08:00:01;;;;;;;0.00;0.00;;;13.40;99.90;;;;;;4939492;28;20540;-66
2022/06/01 08:02:30;;;;;;;0.00;0.00;;;13.40;99.90;;;;;;4939967;28;20559;-66
2022/06/01 08:04:58;;;;;;;0.00;0.00;;;13.50;99.90;;;;;;4940459;29;20447;-66
2022/06/01 08:07:25;;;;;;;0.00;0.00;;;13.50;99.90;;;;;;4940419;28;20489;-66
2022/06/01 08:09:53;;;;;;;0.00;0.00;;;13.60;99.90;;;;;;4925320;29;20992;-65
2022/06/01 08:15:08;;;;;;;0.00;0.00;;;13.90;99.90;;;;;;4921054;29;20450;-64
2022/06/01 08:17:46;;;;;;;0.00;0.00;;;14.00;99.90;;;;;;4929055;29;20436;-66
2022/06/01 08:20:15;;;;;;;0.00;0.00;;;14.20;99.90;;;;;;4939856;28;20511;-66
2022/06/01 08:22:43;;;;;;;0.00;0.00;;;14.40;99.90;;;;;;4940349;29;20548;-67
2022/06/01 08:25:13;;;;;;;0.00;0.00;;;14.40;99.90;;;;;;4940229;28;20449;-67
2022/06/01 08:27:40;;;;;;;0.00;0.00;;;14.50;99.90;;;;;;4940569;29;20484;-69
2022/06/01 08:30:09;;;;;;;0.00;0.00;;;14.60;99.90;;;;;;4924315;29;20454;-69
2022/06/01 08:32:37;;;;;;;0.00;0.00;;;14.60;99.90;;;;;;4939812;28;20457;-80
2022/06/01 08:35:10;;;;;;;0.00;0.00;;;14.60;99.90;;;;;;4935602;29;20448;-68
2022/06/01 08:37:37;;;;;;;0.00;0.00;;;14.60;99.90;;;;;;4935514;29;20514;-67
2022/06/01 08:40:07;;;;;;;0.00;0.00;;;14.70;99.90;;;;;;4925002;29;20445;-68
2022/06/01 08:42:35;;;;;;;0.00;0.00;;;14.80;99.90;;;;;;4925876;29;20469;-68
2022/06/01 08:45:07;;;;;;;0.00;0.00;;;14.90;99.90;;;;;;4920747;29;20441;-68
2022/06/01 08:47:39;;;;;;;0.00;0.00;;;14.90;99.90;;;;;;4920391;29;20489;-67
2022/06/01 08:50:17;;;;;;;0.00;0.00;;;15.00;99.90;;;;;;4920600;29;20437;-68
2022/06/01 08:52:44;;;;;;;0.00;0.00;;;15.10;99.90;;;;;;4920613;29;20973;-68
2022/06/01 08:55:13;;;;;;;0.00;0.00;;;15.20;99.90;;;;;;4919967;29;20446;-68
2022/06/01 08:57:48;;;;;;;0.00;0.00;;;15.20;99.90;;;;;;4920654;29;20453;-68
2022/06/01 09:00:19;;;;;;;0.00;0.00;;;15.30;99.90;;;;;;4921220;29;20453;-68
2022/06/01 09:02:57;;;;;;;0.00;0.00;;;15.40;99.90;;;;;;4932638;28;21198;-67
2022/06/01 09:05:37;;;;;;;0.00;0.00;;;15.50;99.90;;;;;;4939774;29;20479;-67
2022/06/01 09:08:10;;;;;;;0.00;0.00;;;15.60;99.90;;;;;;4939848;28;20567;-68
2022/06/01 09:10:56;;;;;;;0.00;0.00;;;15.70;99.90;;;;;;4920724;29;20453;-68
2022/06/01 09:13:27;;;;;;;0.00;0.00;;;15.80;99.90;;;;;;4920811;29;20520;-68
2022/06/01 09:16:06;;;;;;;0.00;0.00;;;15.90;99.90;;;;;;4933849;29;20444;-68
2022/06/01 09:18:38;;;;;;;0.00;0.00;;;16.00;99.90;;;;;;4927555;29;20599;-70
2022/06/01 09:24:06;;;;;;;0.00;0.00;;;16.30;99.90;;;;;;4920495;29;20536;-70
2022/06/01 09:26:34;;;;;;;0.00;0.00;;;16.50;99.90;;;;;;4920023;29;20526;-69
2022/06/01 09:29:03;;;;;;;0.00;0.00;;;16.60;99.90;;;;;;4922782;29;20554;-69
2022/06/01 09:31:37;;;;;;;0.00;0.00;;;16.80;99.90;;;;;;4939099;28;20487;-71
2022/06/01 09:34:17;;;;;;;0.00;0.00;;;16.80;99.90;;;;;;4939806;29;20465;-68
2022/06/01 09:37:02;;;;;;;0.00;0.00;;;16.90;99.90;;;;;;4939217;28;21108;-69
2022/06/01 09:39:30;;;;;;;0.00;0.00;;;17.00;99.90;;;;;;4939874;29;20440;-69
2022/06/01 09:42:13;;;;;;;0.00;0.00;;;17.20;99.90;;;;;;4939887;29;20453;-70
2022/06/01 09:44:45;;;;;;;0.00;0.00;;;17.50;99.90;;;;;;4940665;28;20438;-65
2022/06/01 09:47:43;;;;;;;0.00;0.00;;;17.60;99.90;;;;;;4941153;29;20445;-67
2022/06/01 09:50:25;;;;;;;0.00;0.00;;;17.90;99.90;;;;;;4933399;28;20448;-68
2022/06/01 09:52:59;;;;;;;0.00;0.00;;;18.10;99.90;;;;;;4926244;29;20471;-67
2022/06/01 09:55:31;;;;;;;0.00;0.00;;;18.20;99.90;;;;;;4930952;29;20499;-67
2022/06/01 09:58:07;;;;;;;0.00;0.00;;;18.30;99.90;;;;;;4930908;29;21340;-67
2022/06/01 10:06:27;;;;;;;0.00;0.00;;;18.50;99.90;;;;;;4928811;28;20464;-67
2022/06/01 10:09:00;;;;;;;0.00;0.00;;;18.50;99.90;;;;;;4930187;29;20499;-68
2022/06/01 10:11:35;;;;;;;0.00;0.00;;;18.50;99.90;;;;;;4933917;29;20511;-68
2022/06/01 10:14:18;;;;;;;0.00;0.00;;;18.40;99.90;;;;;;4932005;28;20486;-68
2022/06/01 10:17:00;;;;;;;0.00;0.00;;;18.30;99.90;;;;;;4932443;29;20467;-68
2022/06/01 10:19:32;;;;;;;0.00;0.00;;;18.30;99.90;;;;;;4934621;29;20447;-68
2022/06/01 10:22:05;;;;;;;0.00;0.00;;;18.20;99.90;;;;;;4933861;29;20546;-68
2022/06/01 10:24:39;;;;;;;0.00;0.00;;;18.10;99.90;;;;;;4932819;28;20440;-68
2022/06/01 10:27:08;;;;;;;0.00;0.00;;;18.00;99.90;;;;;;4932816;28;20445;-66
2022/06/01 10:29:41;;;;;;;0.00;0.00;;;18.00;99.90;;;;;;4928748;29;21000;-71
2022/06/01 10:32:12;;;;;;;0.00;0.00;;;17.90;99.90;;;;;;4940633;28;21164;-71
2022/06/01 10:34:46;;;;;;;0.00;0.00;;;17.90;99.90;;;;;;4941340;28;20467;-70
2022/06/01 10:37:31;;;;;;;0.00;0.00;;;17.80;99.90;;;;;;4941734;29;20468;-73
2022/06/01 10:40:05;;;;;;;0.00;0.00;;;17.90;99.90;;;;;;4925664;29;20608;-66
2022/06/01 10:45:24;;;;;;;0.00;0.00;;;18.10;99.90;;;;;;4923119;29;20542;-67
2022/06/01 10:47:58;;;;;;;0.00;0.00;;;18.30;99.90;;;;;;4923285;29;20455;-68
2022/06/01 10:50:29;;;;;;;0.00;0.00;;;18.30;99.90;;;;;;4932139;29;20474;-72
2022/06/01 10:53:04;;;;;;;0.00;0.00;;;18.40;99.90;;;;;;4935430;28;20552;-71
2022/06/01 10:55:39;;;;;;;0.00;0.00;;;18.50;99.90;;;;;;4931023;29;21049;-71
2022/06/01 10:58:08;;;;;;;0.00;0.00;;;18.60;99.90;;;;;;4939020;29;21004;-71
2022/06/01 11:00:44;;;;;;;0.00;0.00;;;18.50;99.90;;;;;;4939527;29;20566;-71
2022/06/01 11:03:37;;;;;;;0.00;0.00;;;18.30;99.90;;;;;;4923334;29;21173;-71
2022/06/01 11:06:21;;;;;;;0.00;0.00;;;18.20;99.90;;;;;;4922648;29;21001;-70
2022/06/01 11:08:56;;;;;;;0.00;0.00;;;18.20;99.90;;;;;;4926058;29;20567;-70
2022/06/01 11:11:37;;;;;;;0.00;0.00;;;18.20;99.90;;;;;;4923036;29;20471;-71
2022/06/01 11:14:25;;;;;;;0.00;0.00;;;18.10;99.90;;;;;;4922066;29;20472;-71
2022/06/01 11:16:58;;;;;;;0.00;0.00;;;18.00;99.90;;;;;;4930123;29;20453;-71
2022/06/01 11:19:38;;;;;;;0.00;0.00;;;17.90;99.90;;;;;;4938846;28;20467;-69
2022/06/01 11:22:18;;;;;;;0.00;0.00;;;17.80;99.90;;;;;;4937724;29;20562;-71
2022/06/01 11:24:59;;;;;;;0.00;0.00;;;17.80;99.90;;;;;;4938383;29;20612;-71
2022/06/01 11:27:41;;;;;;;0.00;0.00;;;17.80;99.90;;;;;;4941038;28;20446;-71
2022/06/01 11:30:15;;;;;;;0.00;0.00;;;17.80;99.90;;;;;;4941095;29;20577;-71
2022/06/01 11:32:49;;;;;;;0.00;0.00;;;17.80;99.90;;;;;;4940872;28;21247;-71
2022/06/01 11:35:23;;;;;;;0.00;0.00;;;17.90;99.90;;;;;;4943660;28;20448;-71
2022/06/01 11:37:59;;;;;;;0.00;0.00;;;18.10;99.90;;;;;;4946678;29;20483;-71
2022/06/01 11:40:37;;;;;;;0.00;0.00;;;18.20;99.90;;;;;;4944249;29;20439;-72
2022/06/01 11:43:18;;;;;;;0.00;0.00;;;18.20;99.90;;;;;;4942079;29;21080;-71
2022/06/01 11:45:52;;;;;;;0.00;0.00;;;18.30;99.90;;;;;;4941786;29;21164;-71
2022/06/01 11:48:24;;;;;;;0.00;0.00;;;18.50;99.90;;;;;;4941684;29;20483;-71
2022/06/01 11:51:11;;;;;;;0.00;0.00;;;18.40;99.90;;;;;;4940744;28;20509;-71
2022/06/01 11:53:46;;;;;;;0.00;0.00;;;18.30;99.90;;;;;;4945817;29;20471;-72
2022/06/01 11:56:24;;;;;;;0.00;0.00;;;18.40;99.90;;;;;;4951515;29;21057;-71
2022/06/01 11:59:07;;;;;;;0.00;0.00;;;18.50;99.90;;;;;;4942186;29;20466;-72
2022/06/01 12:01:47;;;;;;;0.00;0.00;;;18.50;99.90;;;;;;4941419;29;20461;-70
2022/06/01 12:04:21;;;;;;;0.00;0.00;;;18.60;99.90;;;;;;4941647;28;20843;-72
2022/06/01 12:06:59;;;;;;;0.00;0.00;;;18.80;99.90;;;;;;4941299;29;21139;-71
2022/06/01 12:09:38;;;;;;;0.00;0.00;;;18.90;99.90;;;;;;4941587;28;20476;-71
2022/06/01 12:12:08;;;;;;;0.00;0.00;;;18.90;99.90;;;;;;4941262;28;20472;-70
2022/06/01 12:14:42;;;;;;;0.00;0.00;;;18.80;99.90;;;;;;4941364;29;20450;-71
2022/06/01 12:17:33;;;;;;;0.00;0.00;;;18.80;99.90;;;;;;4940717;29;20447;-72
2022/06/01 12:20:47;;;;;;;0.00;0.00;;;18.50;99.90;;;;;;4940871;28;20442;-72
2022/06/01 12:29:42;;;;;;;0.00;0.00;;;17.70;99.90;;;;;;4940517;29;20480;-73
2022/06/01 12:32:13;;;;;;;0.00;0.00;;;17.70;99.90;;;;;;4940513;29;20745;-72
2022/06/01 12:34:58;;;;;;;0.00;0.00;;;17.70;99.90;;;;;;4940180;29;20524;-71
2022/06/01 12:37:34;;;;;;;0.00;0.00;;;17.90;99.90;;;;;;4939263;28;20986;-71
2022/06/01 12:40:06;;;;;;;0.00;0.00;;;18.00;99.90;;;;;;4939998;28;20891;-70
2022/06/01 12:42:36;;;;;;;0.00;0.00;;;18.20;99.90;;;;;;4934869;29;20522;-70
2022/06/01 12:45:12;;;;;;;0.00;0.00;;;18.40;99.90;;;;;;4931283;29;20468;-71
2022/06/01 12:47:43;;;;;;;0.00;0.00;;;18.70;99.90;;;;;;4926261;29;20838;-69
2022/06/01 12:50:14;;;;;;;0.00;0.00;;;18.90;99.90;;;;;;4937734;28;20500;-71
2022/06/01 12:52:43;;;;;;;0.00;0.00;;;19.20;99.90;;;;;;4933803;29;20492;-70
2022/06/01 12:55:13;;;;;;;0.00;0.00;;;19.40;99.90;;;;;;4925170;29;20481;-72
2022/06/01 12:57:50;;;;;;;0.00;0.00;;;19.60;99.90;;;;;;4927333;29;20621;-72
2022/06/01 13:00:22;;;;;;;0.00;0.00;;;19.60;99.90;;;;;;4933345;28;20469;-72
2022/06/01 13:02:50;;;;;;;0.00;0.00;;;19.60;99.90;;;;;;4926396;29;20786;-70
2022/06/01 13:05:21;;;;;;;0.00;0.00;;;19.60;99.90;;;;;;4939298;28;20448;-71
2022/06/01 13:07:56;;;;;;;0.00;0.00;;;19.70;99.90;;;;;;4925205;28;20452;-71
2022/06/01 13:10:27;;;;;;;0.00;0.00;;;19.90;99.90;;;;;;4922533;29;20561;-70
2022/06/01 13:13:01;;;;;;;0.00;0.00;;;20.10;99.90;;;;;;4932912;29;20476;-71
2022/06/01 13:15:31;;;;;;;0.00;0.00;;;20.20;99.90;;;;;;4929336;29;20539;-71
2022/06/01 13:18:01;;;;;;;0.00;0.00;;;20.10;99.90;;;;;;4925496;29;20661;-71
2022/06/01 13:20:36;;;;;;;0.00;0.00;;;20.10;99.90;;;;;;4926863;29;20465;-71
2022/06/01 13:23:12;;;;;;;0.00;0.00;;;19.80;99.90;;;;;;4920107;29;20802;-70
2022/06/01 13:25:41;;;;;;;0.00;0.00;;;19.40;99.90;;;;;;4919370;29;20475;-70
2022/06/01 13:28:11;;;;;;;0.00;0.00;;;18.70;99.90;;;;;;4920564;29;20722;-70
2022/06/01 13:30:40;;;;;;;0.00;0.00;;;18.10;99.90;;;;;;4920589;29;20486;-71
2022/06/01 13:33:19;;;;;;;0.00;0.00;;;17.30;99.90;;;;;;4920962;29;20449;-70
2022/06/01 13:35:57;;;;;;;0.00;0.00;;;16.50;99.90;;;;;;4920231;29;20541;-70
2022/06/01 13:38:34;;;;;;;0.00;0.00;;;15.60;99.90;;;;;;4920553;29;20619;-70
2022/06/01 13:41:04;;;;;;;0.00;0.00;;;14.70;99.90;;;;;;4920582;29;20946;-70
2022/06/01 13:43:40;;;;;;;0.00;0.00;;;14.00;99.90;;;;;;4921077;29;20854;-70
2022/06/01 13:46:13;;;;;;;0.00;0.00;;;13.50;99.90;;;;;;4921796;29;20583;-70